Terminal Aerodrome Forecast
Issued by NWS Greer, SC

Home | Current Version | Previous Version | Text Only | Print | Product List | Glossary On
Versions: 1 2 3 4 5 6 7 8 9 10 11 12 13 14 15 16 17 18 19 20 21 22 23 24 25 26 27 28 29 30 31
000
FTUS42 KGSP 042333
TAFAVL
TAF
KAVL 042333Z 0500/0524 35005KT P6SM BKN060
     FM050500 VRB03KT P6SM SCT045
     FM050700 00000KT 5SM BR SCT045
     FM050900 00000KT 3SM BR BKN030
     FM051400 07004KT P6SM VCSH BKN035 PROB30 0515/0521 4SM TSRA
      BKN040CB=

USA.gov is the U.S. government's official web portal to all federal, state and local government web resources and services.